ADDS METAR Data INFO
IDs: Format: Raw Decoded Include TAF

Data at: 1901 UTC 21 Apr 2018

METAR for:KFPK (Charotte/Beach Fld, MI, US)
Text:KFPK 211855Z AUTO 22005KT 10SM CLR 14/M03 A3040 RMK AO2 T01371032
Temperature: 13.7°C ( 57°F)
Dewpoint: -3.2°C ( 26°F) [RH = 31%]
Pressure (altimeter):30.40 inches Hg (1029.5 mb)
Winds:from the SW (220 degrees) at 6 MPH (5 knots; 2.6 m/s)
Visibility:10 or more sm (16+ km)
Ceiling:at least 12,000 feet AGL
Clouds:sky clear below 12,000 feet AGL
QC Flag:automated observation with no human augmentation

TAF for:KFPK (Charotte/Beach Fld, MI, US)
Text:No data found

METAR for:KLAN (Lansing/Capital City, MI, US)
Text:KLAN 211853Z 21006KT 10SM CLR 13/M03 A3041 RMK AO2 SLP304 T01331033
Temperature: 13.3°C ( 56°F)
Dewpoint: -3.3°C ( 26°F) [RH = 31%]
Pressure (altimeter):30.41 inches Hg (1029.9 mb) [Sea level pressure: 1030.4 mb]
Winds:from the SSW (210 degrees) at 7 MPH (6 knots; 3.1 m/s)
Visibility:10 or more sm (16+ km)
Ceiling:at least 12,000 feet AGL
Clouds:sky clear below 12,000 feet AGL

TAF for:KLAN (Lansing/Capital City, MI, US) issued at 1751 UTC 21 Apr 2018
Text:KLAN 211751Z 2118/2218 20005KT P6SM SCT150 OVC250
Forecast period:1800 UTC 21 April 2018 to 1800 UTC 22 April 2018
Forecast type:FROM: standard forecast or significant change
Winds:from the SSW (200 degrees) at 6 MPH (5 knots; 2.6 m/s)
Visibility:6 or more sm (10+ km)
Ceiling:25000 feet AGL
Clouds: scattered clouds at 15000 feet AGL, overcast cloud deck at 25000 feet AGL